Flugplatz Finsterwalde/Heinrichsruh

Für EDAS sind keine METAR/TAF Berichte vorhanden.
Es werden die Flugwettermeldungen vom Flugplatz Holzdorf Airport in 37 km Entfernung angezeigt.

Bericht für ETSH

vom 25.08. um 20:20 UTC

Wind 5 kt aus 90°

Sichtweite 10 km oder mehr

aufgebrochene Bewölkung in 28000 ft

Temperatur 25.0°C

Taupunkt 14.0°C

Luftfeuchtigkeit 50%

Luftdruck 1021 hPa

ETSH 252020Z 09005KT 9999 BKN280 25/14 Q1021 BLU+
Keine Prognose (TAF) verfügbar.
Impressum